createdAt,value
2022-12-04T00:00:25.645Z,24.450
2022-12-04T00:01:23.293Z,24.500
2022-12-04T00:02:33.117Z,25.000
2022-12-04T00:03:51.047Z,26.050
2022-12-04T00:04:23.056Z,26.200
2022-12-04T00:05:25.351Z,26.400
2022-12-04T00:06:24.600Z,27.550
2022-12-04T00:07:30.964Z,27.900
2022-12-04T00:08:25.175Z,27.650
2022-12-04T00:09:32.837Z,27.200
2022-12-04T00:10:30.516Z,26.400
2022-12-04T00:11:24.789Z,27.300
2022-12-04T00:12:23.509Z,26.300
2022-12-04T00:13:33.661Z,26.100
2022-12-04T00:14:26.226Z,28.750
2022-12-04T00:15:25.597Z,32.000
2022-12-04T00:16:22.899Z,26.400
2022-12-04T00:17:27.375Z,25.600
2022-12-04T00:18:24.784Z,25.000
2022-12-04T00:19:19.566Z,25.900
2022-12-04T00:20:31.067Z,26.850
2022-12-04T00:21:25.388Z,23.400
2022-12-04T00:22:22.490Z,23.450
2022-12-04T00:23:24.360Z,24.650
2022-12-04T00:24:29.495Z,24.200
2022-12-04T00:25:23.409Z,25.050
2022-12-04T00:26:19.423Z,26.400
2022-12-04T00:27:30.994Z,23.950
2022-12-04T00:28:27.525Z,23.600
2022-12-04T00:29:21.057Z,24.700
2022-12-04T00:30:27.370Z,23.300
2022-12-04T00:31:29.588Z,24.400
2022-12-04T00:32:38.573Z,23.750
2022-12-04T00:33:20.464Z,23.000
2022-12-04T00:34:31.271Z,23.100
2022-12-04T00:35:25.692Z,23.100
2022-12-04T00:36:21.287Z,23.850
2022-12-04T00:37:23.688Z,24.300
2022-12-04T00:38:24.082Z,24.100
2022-12-04T00:39:24.479Z,23.200
2022-12-04T00:40:21.623Z,23.500
2022-12-04T00:41:26.906Z,23.150
2022-12-04T00:42:25.745Z,22.450
2022-12-04T00:43:21.805Z,22.900
2022-12-04T00:44:21.866Z,22.550
2022-12-04T00:45:21.318Z,23.100
2022-12-04T00:46:23.838Z,21.900
2022-12-04T00:47:20.478Z,22.900
2022-12-04T00:48:29.543Z,22.600
2022-12-04T00:49:22.190Z,22.850
2022-12-04T00:50:21.741Z,22.300
2022-12-04T00:51:26.412Z,22.100
2022-12-04T00:52:27.526Z,22.400
2022-12-04T00:53:23.988Z,22.700
2022-12-04T00:54:19.947Z,22.700
2022-12-04T00:55:27.254Z,25.550
2022-12-04T00:56:25.489Z,22.100
2022-12-04T00:57:24.280Z,24.900
2022-12-04T00:58:33.410Z,21.850
2022-12-04T00:59:22.252Z,20.750
2022-12-04T01:00:23.651Z,23.600
2022-12-04T01:01:44.990Z,22.850
2022-12-04T01:02:36.102Z,24.200
2022-12-04T01:03:38.551Z,24.350
2022-12-04T01:04:36.881Z,24.600
2022-12-04T01:05:35.758Z,24.800
2022-12-04T01:06:29.373Z,21.900
2022-12-04T01:07:31.969Z,22.400
2022-12-04T01:08:35.407Z,21.800
2022-12-04T01:09:30.600Z,22.300
2022-12-04T01:10:25.822Z,22.150
2022-12-04T01:11:22.089Z,21.900
2022-12-04T01:12:28.171Z,21.300
2022-12-04T01:13:55.598Z,21.800
2022-12-04T01:14:29.489Z,22.500
2022-12-04T01:15:30.777Z,20.550
2022-12-04T01:16:41.679Z,20.600
2022-12-04T01:17:22.658Z,21.800
2022-12-04T01:18:21.603Z,21.300
2022-12-04T01:19:31.436Z,21.100
2022-12-04T01:20:29.583Z,22.650
2022-12-04T01:21:23.514Z,23.600
2022-12-04T01:22:24.471Z,21.600
2022-12-04T01:23:20.876Z,22.850
2022-12-04T01:24:25.406Z,21.900
2022-12-04T01:25:23.395Z,21.750
2022-12-04T01:26:33.908Z,20.550
2022-12-04T01:27:27.893Z,21.750
2022-12-04T01:28:23.444Z,22.200
2022-12-04T01:29:19.475Z,20.800
2022-12-04T01:30:25.757Z,20.700
2022-12-04T01:31:25.791Z,21.600
2022-12-04T01:32:21.312Z,22.200
2022-12-04T01:33:32.968Z,21.400
2022-12-04T01:34:23.515Z,20.750
2022-12-04T01:35:23.952Z,19.650
2022-12-04T01:36:20.546Z,19.500
2022-12-04T01:37:23.185Z,21.150
2022-12-04T01:38:23.326Z,21.050
2022-12-04T01:39:21.646Z,20.700
2022-12-04T01:40:27.928Z,22.350
2022-12-04T01:41:27.824Z,22.300
2022-12-04T01:42:25.902Z,21.700
2022-12-04T01:43:20.901Z,22.200
2022-12-04T01:44:25.500Z,22.950
2022-12-04T01:45:28.556Z,22.550
2022-12-04T01:46:21.797Z,23.500
2022-12-04T01:47:33.350Z,23.650
2022-12-04T01:48:27.781Z,28.100
2022-12-04T01:49:23.770Z,22.250
2022-12-04T01:50:23.066Z,22.650
2022-12-04T01:51:24.298Z,24.700
2022-12-04T01:52:22.517Z,27.100
2022-12-04T01:53:23.913Z,23.350
2022-12-04T01:54:34.193Z,22.500
2022-12-04T01:55:27.637Z,23.200
2022-12-04T01:56:23.629Z,23.400
2022-12-04T01:57:22.227Z,22.950
2022-12-04T01:58:29.531Z,23.650
2022-12-04T01:59:26.675Z,20.800
2022-12-04T02:00:25.042Z,22.900
2022-12-04T02:39:36.080Z,21.300
2022-12-04T02:40:45.489Z,22.050
2022-12-04T02:41:28.467Z,22.950
2022-12-04T03:15:23.255Z,24.850
2022-12-04T03:16:30.560Z,23.100
2022-12-04T03:17:29.626Z,19.600
2022-12-04T03:18:52.696Z,20.100
2022-12-04T03:19:43.049Z,21.000
2022-12-04T03:20:28.889Z,21.200
2022-12-04T03:21:19.826Z,21.000
2022-12-04T03:22:31.555Z,21.150
2022-12-04T03:23:21.451Z,20.200
2022-12-04T03:24:21.490Z,20.800
2022-12-04T03:25:32.474Z,19.300
2022-12-04T03:26:28.893Z,19.100
2022-12-04T03:27:32.903Z,22.200
2022-12-04T03:28:20.357Z,19.400
2022-12-04T03:29:32.452Z,20.300
2022-12-04T03:30:25.967Z,23.400
2022-12-04T03:31:24.712Z,26.200
2022-12-04T03:32:33.756Z,22.550
2022-12-04T03:33:28.837Z,21.050
2022-12-04T03:34:23.900Z,19.500
2022-12-04T03:35:19.989Z,19.700
2022-12-04T03:36:29.802Z,20.200
2022-12-04T03:37:27.282Z,21.800
2022-12-04T03:38:23.115Z,26.300
2022-12-04T03:39:27.419Z,21.700
2022-12-04T03:40:22.168Z,19.900
2022-12-04T03:41:24.132Z,19.900
2022-12-04T03:42:22.618Z,19.700
2022-12-04T03:43:20.383Z,19.800
2022-12-04T03:44:25.802Z,21.950
2022-12-04T03:45:23.469Z,21.400
2022-12-04T03:46:31.670Z,24.950
2022-12-04T03:47:24.666Z,24.900
2022-12-04T03:48:23.844Z,22.150
2022-12-04T03:49:19.872Z,21.800
2022-12-04T03:50:31.138Z,24.050
2022-12-04T03:51:25.631Z,20.350
2022-12-04T03:52:23.933Z,22.700
2022-12-04T03:53:23.125Z,20.700
2022-12-04T03:54:28.723Z,20.200
2022-12-04T03:55:26.221Z,21.000
2022-12-04T03:56:19.902Z,24.450
2022-12-04T03:57:29.672Z,22.900
2022-12-04T03:58:25.648Z,23.950
2022-12-04T03:59:23.215Z,22.800
2022-12-04T04:00:40.894Z,22.400
2022-12-04T04:01:37.302Z,21.000
2022-12-04T04:02:40.185Z,20.450
2022-12-04T04:03:32.005Z,20.700
2022-12-04T04:04:36.756Z,22.000
2022-12-04T04:05:32.542Z,24.300
2022-12-04T04:06:35.236Z,21.900
2022-12-04T04:07:35.596Z,21.500
2022-12-04T04:08:39.327Z,20.400
2022-12-04T04:09:28.782Z,20.500
2022-12-04T04:10:31.075Z,20.200
2022-12-04T04:11:30.922Z,21.050
2022-12-04T04:12:40.224Z,21.300
2022-12-04T04:13:33.704Z,22.050
2022-12-04T04:14:43.155Z,22.400
2022-12-04T04:15:40.671Z,23.100
2022-12-04T04:16:30.649Z,20.100
2022-12-04T04:17:36.502Z,21.000
2022-12-04T04:18:38.925Z,19.850
2022-12-04T04:19:41.999Z,21.700
2022-12-04T04:20:35.487Z,25.100
2022-12-04T04:21:46.897Z,23.400
2022-12-04T04:22:32.933Z,22.500
2022-12-04T04:23:30.942Z,21.000
2022-12-04T04:24:52.150Z,20.400
2022-12-04T04:25:36.584Z,21.650
2022-12-04T04:27:09.082Z,22.550
2022-12-04T04:28:07.280Z,24.600
2022-12-04T04:28:45.323Z,24.300
2022-12-04T04:29:40.032Z,20.100
2022-12-04T04:30:30.751Z,19.400
2022-12-04T04:31:28.763Z,19.950
2022-12-04T04:32:32.640Z,21.900
2022-12-04T04:33:24.076Z,22.400
2022-12-04T04:34:27.110Z,23.750
2022-12-04T04:35:33.541Z,24.200
2022-12-04T04:36:30.131Z,18.600
2022-12-04T04:37:26.382Z,19.100
2022-12-04T04:38:38.028Z,20.850
2022-12-04T04:39:38.713Z,22.500
2022-12-04T04:40:24.529Z,21.000
2022-12-04T04:41:31.347Z,21.100
2022-12-04T04:42:39.611Z,19.300
2022-12-04T04:43:35.984Z,19.100
2022-12-04T04:44:29.597Z,21.600
2022-12-04T04:45:25.183Z,19.950
2022-12-04T04:46:32.073Z,22.000
2022-12-04T04:47:34.315Z,20.100
2022-12-04T04:48:33.084Z,20.850
2022-12-04T04:49:39.906Z,20.750
2022-12-04T04:50:36.463Z,21.500
2022-12-04T04:51:27.952Z,18.950
2022-12-04T04:52:23.604Z,20.000
2022-12-04T04:53:38.880Z,23.000
2022-12-04T04:54:20.755Z,23.050
2022-12-04T04:55:21.999Z,20.700
2022-12-04T04:56:22.445Z,20.100
2022-12-04T04:57:28.018Z,22.350
2022-12-04T04:58:23.991Z,19.600
2022-12-04T04:59:19.983Z,20.550
2022-12-04T05:00:33.227Z,19.000
2022-12-04T05:01:27.102Z,20.000
2022-12-04T05:02:22.686Z,22.300
2022-12-04T05:03:26.506Z,22.400
2022-12-04T05:04:28.129Z,19.250
2022-12-04T05:05:25.653Z,18.600
2022-12-04T05:06:20.617Z,18.800
2022-12-04T05:07:30.162Z,18.150
2022-12-04T05:08:31.394Z,19.500
2022-12-04T05:09:23.306Z,21.500
2022-12-04T05:10:28.945Z,17.700
2022-12-04T05:11:22.360Z,17.900
2022-12-04T05:12:23.811Z,18.700
2022-12-04T05:13:21.803Z,18.900
2022-12-04T05:14:31.834Z,18.200
2022-12-04T05:15:26.194Z,18.000
2022-12-04T05:16:26.993Z,17.850
2022-12-04T05:17:34.657Z,18.450
2022-12-04T05:18:28.297Z,19.400
2022-12-04T05:19:27.145Z,19.700
2022-12-04T05:20:19.946Z,20.550
2022-12-04T05:21:29.994Z,21.650
2022-12-04T05:22:37.185Z,22.100
2022-12-04T05:23:22.997Z,19.800
2022-12-04T05:24:23.339Z,18.900
2022-12-04T05:25:28.049Z,19.400
2022-12-04T05:26:24.340Z,22.900
2022-12-04T05:27:21.041Z,23.100
2022-12-04T05:28:31.850Z,22.650
2022-12-04T05:29:26.012Z,18.500
2022-12-04T05:30:25.667Z,22.900
2022-12-04T05:31:31.948Z,18.150
2022-12-04T05:32:34.857Z,18.800
2022-12-04T05:33:25.222Z,20.000
2022-12-04T05:34:20.706Z,21.150
2022-12-04T05:35:31.031Z,19.700
2022-12-04T05:36:28.625Z,18.200
2022-12-04T05:37:24.015Z,18.900
2022-12-04T05:38:34.045Z,18.900
2022-12-04T05:39:23.292Z,20.100
2022-12-04T05:40:24.271Z,19.400
2022-12-04T05:41:20.679Z,18.800
2022-12-04T05:42:29.882Z,18.750
2022-12-04T05:43:25.999Z,19.400
2022-12-04T05:44:23.288Z,19.700
2022-12-04T05:45:21.843Z,18.400
2022-12-04T05:46:27.915Z,19.200
2022-12-04T05:47:22.036Z,19.250
2022-12-04T05:48:20.186Z,21.300
2022-12-04T05:49:22.654Z,21.000
2022-12-04T05:50:25.922Z,20.700
2022-12-04T05:51:22.148Z,20.900
2022-12-04T05:52:24.882Z,21.000
2022-12-04T05:53:29.667Z,18.900
2022-12-04T05:54:24.395Z,18.150
2022-12-04T05:55:21.773Z,18.900
2022-12-04T05:56:21.722Z,20.050
2022-12-04T05:57:19.567Z,22.100
2022-12-04T05:58:22.964Z,22.900
2022-12-04T05:59:27.513Z,20.500
2022-12-04T06:00:27.835Z,19.050
2022-12-04T06:01:25.350Z,18.400
2022-12-04T06:02:21.661Z,19.100
2022-12-04T06:03:22.924Z,18.200
2022-12-04T06:04:27.912Z,19.150
2022-12-04T06:05:22.146Z,20.700
2022-12-04T06:06:32.881Z,21.100
2022-12-04T06:07:29.387Z,22.200
2022-12-04T06:08:23.758Z,19.200
2022-12-04T06:09:22.026Z,19.200
2022-12-04T06:10:26.037Z,21.250
2022-12-04T06:11:27.862Z,19.100
2022-12-04T06:12:23.139Z,20.100
2022-12-04T06:13:34.909Z,19.850
2022-12-04T06:14:20.902Z,19.900
2022-12-04T06:15:29.260Z,18.650
2022-12-04T06:16:22.099Z,19.500
2022-12-04T06:17:24.889Z,21.500
2022-12-04T06:18:27.461Z,18.750
2022-12-04T06:19:21.773Z,19.150
2022-12-04T06:20:33.338Z,19.000
2022-12-04T06:21:24.022Z,21.700
2022-12-04T06:22:26.158Z,21.300
2022-12-04T06:23:19.934Z,19.250
2022-12-04T06:24:28.604Z,16.900
2022-12-04T06:25:26.114Z,19.550
2022-12-04T06:26:22.262Z,17.000
2022-12-04T06:27:27.677Z,16.700
2022-12-04T06:28:28.040Z,15.500
2022-12-04T06:29:26.365Z,17.700
2022-12-04T06:30:20.305Z,16.700
2022-12-04T06:31:30.606Z,17.000
2022-12-04T06:32:23.394Z,17.650
2022-12-04T06:33:22.095Z,16.500
2022-12-04T06:34:26.730Z,16.150
2022-12-04T06:35:19.646Z,16.200
2022-12-04T06:36:24.083Z,17.100
2022-12-04T06:37:21.865Z,17.150
2022-12-04T06:38:35.746Z,16.550
2022-12-04T06:39:27.226Z,18.200
2022-12-04T06:40:21.632Z,16.550
2022-12-04T06:41:33.585Z,17.050
2022-12-04T06:42:24.011Z,17.800
2022-12-04T06:43:24.113Z,17.850
2022-12-04T06:44:20.137Z,17.950
2022-12-04T06:45:29.971Z,19.400
2022-12-04T06:46:29.036Z,19.150
2022-12-04T06:47:24.257Z,18.800
2022-12-04T06:48:33.806Z,18.500
2022-12-04T06:49:29.596Z,17.900
2022-12-04T06:50:25.706Z,17.650
2022-12-04T06:51:36.040Z,18.200
2022-12-04T06:52:29.812Z,18.400
2022-12-04T06:53:27.360Z,17.850
2022-12-04T06:54:22.647Z,17.800
2022-12-04T06:55:23.794Z,18.400
2022-12-04T06:56:29.727Z,18.400
2022-12-04T06:57:25.779Z,17.700
2022-12-04T06:58:20.226Z,18.050
2022-12-04T06:59:32.056Z,18.700
2022-12-04T07:00:26.162Z,18.300
2022-12-04T07:01:22.706Z,17.900
2022-12-04T07:02:25.517Z,17.800
2022-12-04T07:03:28.383Z,17.600
2022-12-04T07:04:24.007Z,18.100
2022-12-04T07:05:22.655Z,17.250
2022-12-04T07:06:32.307Z,17.100
2022-12-04T07:07:41.177Z,17.600
2022-12-04T07:08:25.105Z,17.600
2022-12-04T07:09:31.752Z,16.750
2022-12-04T07:10:22.549Z,17.350
2022-12-04T07:11:23.918Z,17.100
2022-12-04T07:12:20.006Z,18.150
2022-12-04T07:13:19.922Z,17.850
2022-12-04T07:14:26.281Z,17.900
2022-12-04T07:15:23.890Z,17.700
2022-12-04T07:16:40.403Z,16.700
2022-12-04T07:17:30.165Z,17.650
2022-12-04T07:18:24.309Z,18.300
2022-12-04T07:19:21.982Z,18.200
2022-12-04T07:20:25.253Z,18.700
2022-12-04T07:21:26.671Z,18.300
2022-12-04T07:22:23.029Z,19.100
2022-12-04T07:23:33.480Z,17.650
2022-12-04T07:24:31.822Z,17.900
2022-12-04T07:25:24.339Z,17.700
2022-12-04T07:26:20.914Z,17.600
2022-12-04T07:27:31.492Z,17.800
2022-12-04T07:28:21.416Z,16.250
2022-12-04T07:29:23.359Z,16.700
2022-12-04T07:30:19.944Z,18.050
2022-12-04T07:31:28.263Z,19.500
2022-12-04T07:32:26.787Z,18.650
2022-12-04T07:33:20.005Z,16.900
2022-12-04T07:34:32.194Z,15.800
2022-12-04T07:35:26.270Z,17.800
2022-12-04T07:36:23.077Z,19.700
2022-12-04T07:37:23.537Z,20.150
2022-12-04T07:38:28.061Z,19.250
2022-12-04T07:39:24.193Z,21.100
2022-12-04T07:40:21.318Z,20.750
2022-12-04T07:41:30.100Z,17.600
2022-12-04T07:42:26.188Z,17.700
2022-12-04T07:43:22.685Z,18.200
2022-12-04T07:44:27.135Z,17.700
2022-12-04T07:45:28.752Z,17.250
2022-12-04T07:46:24.210Z,18.300
2022-12-04T07:47:21.823Z,19.000
2022-12-04T07:48:21.488Z,18.850
2022-12-04T07:49:34.463Z,17.400
2022-12-04T07:50:27.535Z,18.000
2022-12-04T07:51:22.229Z,18.350
2022-12-04T07:52:29.375Z,18.750
2022-12-04T07:53:24.168Z,18.150
2022-12-04T07:54:21.308Z,17.300
2022-12-04T07:55:27.112Z,20.200
2022-12-04T07:56:25.976Z,18.550
2022-12-04T07:57:22.358Z,18.400
2022-12-04T07:58:24.078Z,17.150
2022-12-04T07:59:30.088Z,18.000
2022-12-04T08:00:24.019Z,18.350
2022-12-04T08:01:21.669Z,20.100
2022-12-04T08:02:31.543Z,17.850
2022-12-04T08:03:21.730Z,18.100
2022-12-04T08:04:22.660Z,17.350
2022-12-04T08:05:29.280Z,17.150
2022-12-04T08:06:21.643Z,18.200
2022-12-04T08:07:20.867Z,18.800
2022-12-04T08:08:21.168Z,17.400
2022-12-04T08:09:34.946Z,18.350
2022-12-04T08:10:26.468Z,17.900
2022-12-04T08:11:24.383Z,18.500
2022-12-04T08:12:34.725Z,19.450
2022-12-04T08:13:25.751Z,19.100
2022-12-04T08:14:24.452Z,19.400
2022-12-04T08:15:20.030Z,18.100
2022-12-04T08:16:34.753Z,18.800
2022-12-04T08:17:20.192Z,18.400
2022-12-04T08:18:23.251Z,18.300
2022-12-04T08:19:34.243Z,19.500
2022-12-04T08:20:30.563Z,18.400
2022-12-04T08:21:24.372Z,20.000
2022-12-04T08:22:24.853Z,20.000
2022-12-04T08:23:30.224Z,19.600
2022-12-04T08:24:22.650Z,19.550
2022-12-04T08:25:22.360Z,19.250
2022-12-04T08:26:20.220Z,18.700
2022-12-04T08:27:32.459Z,19.300
2022-12-04T08:28:26.908Z,19.100
2022-12-04T08:29:21.072Z,18.800
2022-12-04T08:30:30.122Z,18.800
2022-12-04T08:31:29.060Z,18.550
2022-12-04T08:32:22.339Z,20.050
2022-12-04T08:33:23.612Z,20.550
2022-12-04T08:34:29.088Z,18.100
2022-12-04T08:35:20.788Z,18.850
2022-12-04T08:36:24.148Z,19.200
2022-12-04T08:37:31.639Z,19.300
2022-12-04T08:38:28.946Z,21.100
2022-12-04T08:39:22.345Z,22.150
2022-12-04T08:40:29.287Z,20.600
2022-12-04T08:41:23.897Z,19.350
2022-12-04T08:42:24.217Z,20.500
2022-12-04T08:43:20.396Z,21.350
2022-12-04T08:44:21.690Z,19.050
2022-12-04T08:45:26.080Z,19.500
2022-12-04T08:46:39.590Z,20.450
2022-12-04T08:47:29.830Z,21.200
2022-12-04T08:48:29.687Z,22.800
2022-12-04T08:49:26.864Z,19.600
2022-12-04T08:50:20.241Z,23.750
2022-12-04T08:51:25.752Z,18.600
2022-12-04T08:52:26.167Z,19.300
2022-12-04T08:53:23.245Z,19.500
2022-12-04T08:54:37.255Z,18.100
2022-12-04T08:55:31.039Z,18.900
2022-12-04T08:56:24.276Z,18.400
2022-12-04T08:57:22.279Z,21.500
2022-12-04T08:58:27.745Z,18.950
2022-12-04T08:59:22.966Z,22.200
2022-12-04T09:00:24.961Z,24.300
2022-12-04T09:01:32.580Z,22.800
2022-12-04T09:02:34.850Z,23.950
2022-12-04T09:03:30.727Z,24.400
2022-12-04T09:04:20.308Z,25.450
2022-12-04T09:05:30.446Z,20.450
2022-12-04T09:06:27.063Z,18.950
2022-12-04T09:07:24.232Z,19.300
2022-12-04T09:08:32.382Z,19.500
2022-12-04T09:09:23.748Z,19.600
2022-12-04T09:10:26.535Z,21.600
2022-12-04T09:11:20.131Z,25.200
2022-12-04T09:12:30.325Z,25.150
2022-12-04T09:13:26.458Z,24.600
2022-12-04T09:14:24.732Z,21.350
2022-12-04T09:15:28.617Z,19.900
2022-12-04T09:16:30.451Z,19.500
2022-12-04T09:17:24.508Z,23.400
2022-12-04T09:18:20.126Z,26.200
2022-12-04T09:19:22.180Z,23.300
2022-12-04T09:20:20.623Z,20.300
2022-12-04T09:21:23.996Z,21.500
2022-12-04T09:22:21.729Z,20.550
2022-12-04T09:23:30.469Z,21.100
2022-12-04T09:24:24.535Z,22.500
2022-12-04T09:25:20.824Z,25.000
2022-12-04T09:26:27.599Z,21.750
2022-12-04T09:27:41.482Z,20.700
2022-12-04T09:28:33.652Z,21.200
2022-12-04T09:29:25.861Z,20.800
2022-12-04T09:30:28.294Z,21.600
2022-12-04T09:31:26.728Z,21.300
2022-12-04T09:32:35.831Z,21.400
2022-12-04T09:33:28.130Z,19.800
2022-12-04T09:34:27.854Z,20.800
2022-12-04T09:35:22.397Z,24.150
2022-12-04T09:36:27.126Z,25.150
2022-12-04T09:37:24.766Z,25.300
2022-12-04T09:38:24.365Z,23.900
2022-12-04T09:39:21.617Z,22.100
2022-12-04T09:40:23.427Z,22.100
2022-12-04T09:41:27.387Z,22.850
2022-12-04T09:42:22.308Z,22.150
2022-12-04T09:43:36.185Z,22.300
2022-12-04T09:44:28.233Z,20.200
2022-12-04T09:45:24.291Z,21.500
2022-12-04T09:46:20.461Z,22.800
2022-12-04T09:47:26.848Z,23.200
2022-12-04T09:48:19.369Z,23.800
2022-12-04T09:49:24.314Z,22.400
2022-12-04T09:50:33.105Z,21.700
2022-12-04T09:51:21.554Z,20.700
2022-12-04T09:52:24.884Z,20.950
2022-12-04T09:53:20.342Z,23.200
2022-12-04T09:54:24.912Z,25.600
2022-12-04T09:55:34.673Z,23.650
2022-12-04T09:56:22.451Z,23.700
2022-12-04T09:57:33.952Z,25.000
2022-12-04T09:58:23.416Z,22.050
2022-12-04T09:59:24.162Z,20.400
2022-12-04T10:00:21.876Z,21.850
2022-12-04T10:01:31.099Z,22.750
2022-12-04T10:02:26.248Z,24.400
2022-12-04T10:03:22.689Z,26.750
2022-12-04T10:04:23.163Z,29.000
2022-12-04T10:05:24.030Z,27.750
2022-12-04T10:06:24.185Z,23.250
2022-12-04T10:07:26.167Z,23.700
2022-12-04T10:08:34.351Z,28.200
2022-12-04T10:09:20.859Z,25.700
2022-12-04T10:10:22.073Z,22.700
2022-12-04T10:11:32.470Z,23.400
2022-12-04T10:12:20.897Z,22.300
2022-12-04T10:13:25.301Z,22.300
2022-12-04T10:14:21.190Z,22.600
2022-12-04T10:15:23.588Z,23.300
2022-12-04T10:16:24.011Z,21.800
2022-12-04T10:17:27.860Z,23.950
2022-12-04T10:18:32.466Z,24.200
2022-12-04T10:19:24.300Z,25.200
2022-12-04T10:20:38.163Z,23.800
2022-12-04T10:21:36.060Z,22.700
2022-12-04T10:22:23.546Z,23.700
2022-12-04T10:23:20.691Z,24.250
2022-12-04T10:24:44.045Z,22.100
2022-12-04T10:25:34.912Z,26.400
2022-12-04T10:26:28.463Z,21.700
2022-12-04T10:27:24.550Z,21.900
2022-12-04T10:28:22.487Z,24.750
2022-12-04T10:29:31.980Z,22.900
2022-12-04T10:30:28.355Z,23.750
2022-12-04T10:31:36.300Z,26.600
2022-12-04T10:32:32.361Z,23.800
2022-12-04T10:33:22.055Z,25.200
2022-12-04T10:34:24.963Z,23.750
2022-12-04T10:35:20.572Z,24.300
2022-12-04T10:36:37.858Z,23.500
2022-12-04T10:37:28.987Z,25.100
2022-12-04T10:38:21.849Z,27.050
2022-12-04T10:39:27.135Z,22.900
2022-12-04T10:40:35.631Z,24.300
2022-12-04T10:41:24.351Z,24.650
2022-12-04T10:42:23.196Z,25.150
2022-12-04T10:43:41.361Z,23.000
2022-12-04T10:44:35.807Z,22.000
2022-12-04T10:45:22.923Z,25.950
2022-12-04T10:46:33.775Z,22.300
2022-12-04T10:47:28.211Z,25.400
2022-12-04T10:48:24.374Z,24.600
2022-12-04T10:49:26.275Z,23.100
2022-12-04T10:50:23.872Z,24.250
2022-12-04T10:51:41.079Z,23.100
2022-12-04T10:52:22.337Z,23.950
2022-12-04T10:53:25.879Z,25.100
2022-12-04T10:54:28.325Z,25.700
2022-12-04T10:55:24.305Z,24.100
2022-12-04T10:56:21.308Z,25.150
2022-12-04T10:57:26.186Z,23.100
2022-12-04T10:58:43.288Z,24.200
2022-12-04T10:59:24.160Z,22.900
2022-12-04T11:00:27.859Z,23.850
2022-12-04T11:01:19.793Z,24.300
2022-12-04T11:02:24.296Z,25.000
2022-12-04T11:03:20.651Z,25.000
2022-12-04T11:04:30.539Z,23.550
2022-12-04T11:05:20.424Z,23.700
2022-12-04T11:06:24.459Z,22.900
2022-12-04T11:07:24.643Z,22.650
2022-12-04T11:08:26.849Z,23.100
2022-12-04T11:09:39.839Z,23.100
2022-12-04T11:10:22.174Z,22.550
2022-12-04T11:11:46.393Z,22.250
2022-12-04T11:12:23.935Z,21.800
2022-12-04T11:13:24.728Z,23.000
2022-12-04T11:14:22.359Z,22.900
2022-12-04T11:15:29.082Z,23.250
2022-12-04T11:16:22.045Z,21.000
2022-12-04T11:17:20.631Z,20.600
2022-12-04T11:18:22.852Z,20.700
2022-12-04T11:19:28.294Z,20.450
2022-12-04T11:20:22.728Z,20.500
2022-12-04T11:21:25.100Z,20.500
2022-12-04T11:22:34.550Z,20.550
2022-12-04T11:23:26.232Z,20.500
2022-12-04T11:24:23.233Z,20.000
2022-12-04T11:25:19.953Z,20.500
2022-12-04T11:26:26.550Z,19.850
2022-12-04T11:27:27.413Z,18.700
2022-12-04T11:28:47.917Z,21.200
2022-12-04T11:29:28.515Z,21.400
2022-12-04T11:30:24.599Z,20.000
2022-12-04T11:31:23.872Z,20.400
2022-12-04T11:32:23.030Z,20.450
2022-12-04T11:33:26.602Z,23.500
2022-12-04T11:34:22.666Z,21.900
2022-12-04T11:35:23.474Z,18.900
2022-12-04T11:36:29.953Z,19.950
2022-12-04T11:37:25.045Z,20.750
2022-12-04T11:38:29.592Z,20.600
2022-12-04T11:39:21.765Z,20.500
2022-12-04T11:40:28.822Z,20.550
2022-12-04T11:41:22.502Z,19.200
2022-12-04T11:42:26.131Z,19.150
2022-12-04T11:43:21.000Z,19.300
2022-12-04T11:44:24.391Z,20.050
2022-12-04T11:45:20.575Z,20.100
2022-12-04T11:46:22.692Z,20.400
2022-12-04T11:47:34.819Z,20.500
2022-12-04T11:48:37.266Z,20.700
2022-12-04T11:49:33.461Z,21.000
2022-12-04T11:50:24.030Z,20.400
2022-12-04T11:51:25.875Z,22.000
2022-12-04T11:52:20.664Z,22.900
2022-12-04T11:53:31.833Z,25.500
2022-12-04T11:54:27.393Z,22.500
2022-12-04T11:55:28.459Z,23.300
2022-12-04T11:56:35.257Z,22.550
2022-12-04T11:57:28.437Z,24.100
2022-12-04T11:58:21.053Z,24.300
2022-12-04T11:59:36.851Z,22.500
2022-12-04T12:00:36.630Z,22.400
2022-12-04T12:01:22.252Z,20.700
2022-12-04T12:02:22.513Z,20.600
2022-12-04T12:03:24.512Z,21.300
2022-12-04T12:04:30.890Z,23.600
2022-12-04T12:05:24.279Z,23.200
2022-12-04T12:06:21.770Z,21.900
2022-12-04T12:07:32.832Z,22.050
2022-12-04T12:08:25.179Z,24.450
2022-12-04T12:09:23.960Z,21.500
2022-12-04T12:10:32.688Z,27.400
2022-12-04T12:11:28.581Z,27.200
2022-12-04T12:12:20.091Z,20.800
2022-12-04T12:13:21.491Z,21.700
2022-12-04T12:14:21.117Z,25.800
2022-12-04T12:15:29.151Z,27.800
2022-12-04T12:16:28.170Z,24.950
2022-12-04T12:17:22.923Z,37.550
2022-12-04T12:18:37.801Z,28.700
2022-12-04T12:19:23.791Z,25.500
2022-12-04T12:20:20.257Z,27.100
2022-12-04T12:21:31.685Z,26.650
2022-12-04T12:22:26.605Z,35.000
2022-12-04T12:23:24.728Z,25.000
2022-12-04T12:24:25.852Z,25.200
2022-12-04T12:25:28.531Z,25.400
2022-12-04T12:26:26.462Z,25.100
2022-12-04T12:27:29.223Z,24.200
2022-12-04T12:28:22.055Z,25.700
2022-12-04T12:29:26.535Z,26.800
2022-12-04T12:30:22.582Z,27.300
2022-12-04T12:31:22.984Z,23.350
2022-12-04T12:32:23.510Z,21.750
2022-12-04T12:33:24.595Z,26.100
2022-12-04T12:34:21.225Z,24.200
2022-12-04T12:35:26.219Z,20.450
2022-12-04T12:36:27.837Z,22.000
2022-12-04T12:37:26.264Z,23.300
2022-12-04T12:38:34.168Z,24.250
2022-12-04T12:39:26.908Z,21.100
2022-12-04T12:40:19.853Z,23.300
2022-12-04T12:41:20.892Z,21.100
2022-12-04T12:42:30.427Z,24.300
2022-12-04T12:43:25.320Z,23.350
2022-12-04T12:44:23.271Z,22.800
2022-12-04T12:45:40.107Z,23.900
2022-12-04T12:46:31.060Z,23.400
2022-12-04T12:47:25.896Z,22.450
2022-12-04T12:48:23.205Z,23.800
2022-12-04T12:49:35.876Z,20.600
2022-12-04T12:50:27.050Z,23.100
2022-12-04T12:51:30.323Z,23.900
2022-12-04T12:52:35.297Z,22.750
2022-12-04T12:53:29.133Z,19.850
2022-12-04T12:54:26.109Z,22.800
2022-12-04T12:55:26.900Z,21.700
2022-12-04T12:56:43.360Z,19.900
2022-12-04T12:57:26.377Z,17.900
2022-12-04T12:58:25.942Z,18.050
2022-12-04T12:59:20.904Z,18.450
2022-12-04T13:00:35.146Z,21.300
2022-12-04T13:01:32.477Z,21.600
2022-12-04T13:02:30.062Z,21.700
2022-12-04T13:03:45.992Z,17.950
2022-12-04T13:04:35.897Z,16.900
2022-12-04T13:05:23.926Z,18.100
2022-12-04T13:06:23.634Z,18.950
2022-12-04T13:07:45.203Z,18.100
2022-12-04T13:08:40.920Z,18.250
2022-12-04T13:09:32.724Z,16.600
2022-12-04T13:10:23.032Z,16.900
2022-12-04T13:11:31.477Z,16.500
2022-12-04T13:12:27.444Z,18.100
2022-12-04T13:13:28.092Z,17.450
2022-12-04T13:14:30.433Z,17.250
2022-12-04T13:15:42.556Z,18.100
2022-12-04T13:16:24.278Z,19.200
2022-12-04T13:17:21.196Z,18.200
2022-12-04T13:18:19.930Z,17.600
2022-12-04T13:19:37.956Z,17.400
2022-12-04T13:20:32.528Z,18.400
2022-12-04T13:21:21.845Z,18.150
2022-12-04T13:22:27.883Z,18.200
2022-12-04T13:23:20.834Z,19.200
2022-12-04T13:24:24.439Z,19.300
2022-12-04T13:25:26.778Z,19.200
2022-12-04T13:26:37.689Z,20.800
2022-12-04T13:27:19.369Z,19.000
2022-12-04T13:28:28.535Z,20.100
2022-12-04T13:29:40.364Z,19.100
2022-12-04T13:30:35.193Z,19.300
2022-12-04T13:31:26.965Z,20.000
2022-12-04T13:32:30.205Z,18.700
2022-12-04T13:33:24.236Z,19.800
2022-12-04T13:34:36.791Z,20.800
2022-12-04T13:35:22.490Z,22.200
2022-12-04T13:36:25.094Z,24.300
2022-12-04T13:37:49.921Z,22.500
2022-12-04T13:38:31.797Z,22.300
2022-12-04T13:39:29.250Z,23.650